Time;durP1;ratioP1;P1;durP2;ratioP2;P2;SDS_P1;SDS_P2;PMS_P1;PMS_P2;Temp;Humidity;BMP_temperature;BMP_pressure;BME280_temperature;BME280_humidity;BME280_pressure;Samples;Min_cycle;Max_cycle;Signal;HPM_P1;HPM_P2
2022/05/31 00:00:23;;;;;;;1.40;1.30;;;12.30;99.60;;;;;;6232431;23;20010;-76
2022/05/31 00:02:50;;;;;;;2.72;0.80;;;12.20;99.90;;;;;;6235037;23;20008;-77
2022/05/31 00:05:15;;;;;;;1.42;0.80;;;12.20;99.90;;;;;;6235450;23;20012;-76
2022/05/31 00:07:42;;;;;;;1.33;0.65;;;12.20;99.90;;;;;;6233465;23;20670;-77
2022/05/31 00:10:10;;;;;;;2.80;0.77;;;12.20;99.90;;;;;;6233207;23;20016;-77
2022/05/31 00:12:37;;;;;;;1.33;0.70;;;12.30;99.80;;;;;;6236877;23;20405;-76
2022/05/31 00:15:05;;;;;;;1.85;0.70;;;12.30;99.70;;;;;;6234971;23;20027;-77
2022/05/31 00:17:30;;;;;;;0.70;0.70;;;12.10;98.60;;;;;;6234135;23;20000;-76
2022/05/31 00:19:57;;;;;;;1.85;0.77;;;11.90;99.60;;;;;;6232456;23;20015;-76
2022/05/31 00:22:24;;;;;;;0.93;0.60;;;11.80;99.70;;;;;;6236278;23;20099;-75
2022/05/31 00:24:51;;;;;;;1.50;0.68;;;11.80;99.90;;;;;;6235104;23;20015;-77
2022/05/31 00:27:20;;;;;;;0.98;0.60;;;11.90;99.90;;;;;;6232648;23;20000;-77
2022/05/31 00:29:47;;;;;;;0.75;0.75;;;12.00;99.90;;;;;;6234513;23;20450;-77
2022/05/31 00:32:15;;;;;;;1.00;0.75;;;11.80;98.70;;;;;;6234826;23;20058;-76
2022/05/31 00:34:44;;;;;;;3.72;0.75;;;11.60;99.70;;;;;;6231507;23;20004;-76
2022/05/31 00:37:11;;;;;;;0.40;0.40;;;11.50;99.90;;;;;;6234036;23;20520;-73
2022/05/31 00:39:37;;;;;;;0.77;0.60;;;11.50;99.90;;;;;;6233988;23;20696;-74
2022/05/31 00:42:09;;;;;;;1.02;0.60;;;11.50;99.90;;;;;;6233539;23;20004;-74
2022/05/31 00:44:36;;;;;;;6.68;0.63;;;11.40;99.90;;;;;;6235886;23;20047;-74
2022/05/31 00:47:17;;;;;;;1.83;0.60;;;11.40;99.90;;;;;;6233800;23;20396;-74
2022/05/31 00:49:52;;;;;;;1.37;0.50;;;11.30;99.90;;;;;;6234613;23;20012;-73
2022/05/31 00:52:36;;;;;;;0.60;0.57;;;11.30;99.90;;;;;;6206711;23;20930;-73
2022/05/31 00:55:12;;;;;;;0.52;0.40;;;11.50;99.90;;;;;;6234863;23;20068;-73
2022/05/31 00:57:43;;;;;;;0.57;0.50;;;11.60;99.90;;;;;;6229571;23;20437;-73
2022/05/31 01:00:13;;;;;;;1.23;0.55;;;11.80;99.90;;;;;;6230512;23;20004;-73
2022/05/31 01:02:41;;;;;;;2.78;0.70;;;12.00;99.90;;;;;;6233865;23;20023;-74
2022/05/31 01:05:09;;;;;;;1.17;0.47;;;12.00;99.90;;;;;;6232669;23;20083;-74
2022/05/31 01:07:35;;;;;;;0.30;0.30;;;11.90;99.20;;;;;;6234150;23;20011;-74
2022/05/31 01:10:04;;;;;;;8.77;0.90;;;11.70;99.40;;;;;;6235182;23;20016;-74
2022/05/31 01:12:31;;;;;;;0.88;0.47;;;11.40;99.80;;;;;;6233976;23;20008;-74
2022/05/31 01:14:56;;;;;;;3.00;0.70;;;11.30;99.90;;;;;;6233230;23;20035;-75
2022/05/31 01:17:24;;;;;;;0.85;0.80;;;11.20;99.90;;;;;;6232000;23;20374;-74
2022/05/31 01:19:57;;;;;;;1.25;0.52;;;11.20;99.90;;;;;;6234579;23;20004;-74
2022/05/31 01:22:36;;;;;;;1.27;0.47;;;11.10;99.90;;;;;;6235048;23;20000;-75
2022/05/31 01:25:21;;;;;;;1.15;0.50;;;11.10;99.90;;;;;;6232828;23;20001;-74
2022/05/31 01:27:49;;;;;;;1.27;0.85;;;11.00;99.90;;;;;;6234189;23;20587;-75
2022/05/31 01:30:16;;;;;;;1.27;0.70;;;11.00;99.90;;;;;;6233832;23;20023;-74
2022/05/31 01:32:49;;;;;;;1.17;0.60;;;11.10;99.90;;;;;;6235127;23;20004;-74
2022/05/31 01:35:34;;;;;;;2.60;0.50;;;11.00;99.90;;;;;;6233057;23;20417;-74
2022/05/31 01:38:08;;;;;;;4.32;0.45;;;10.90;99.90;;;;;;6232015;23;20031;-73
2022/05/31 01:40:48;;;;;;;1.63;0.55;;;10.80;99.90;;;;;;6234923;23;20004;-74
2022/05/31 01:43:13;;;;;;;2.15;0.65;;;10.60;99.90;;;;;;6232839;23;20035;-74
2022/05/31 01:45:48;;;;;;;0.73;0.73;;;10.50;99.90;;;;;;6233465;23;20012;-73
2022/05/31 01:48:14;;;;;;;0.77;0.75;;;10.50;99.90;;;;;;6232854;23;20101;-74
2022/05/31 01:50:40;;;;;;;7.85;0.80;;;10.50;99.90;;;;;;6234080;23;20441;-74
2022/05/31 01:53:09;;;;;;;0.90;0.60;;;10.50;99.90;;;;;;6232678;23;20016;-74
2022/05/31 01:55:37;;;;;;;0.80;0.80;;;10.60;99.90;;;;;;6229751;23;20078;-74
2022/05/31 01:58:07;;;;;;;0.98;0.75;;;10.50;99.90;;;;;;6231617;23;20007;-73
2022/05/31 02:00:33;;;;;;;1.52;0.90;;;10.50;99.90;;;;;;6231105;23;20442;-74
2022/05/31 02:03:01;;;;;;;0.68;0.68;;;10.50;99.90;;;;;;6231103;23;20012;-74
2022/05/31 02:05:27;;;;;;;0.73;0.73;;;10.60;99.90;;;;;;6232391;23;20015;-73
2022/05/31 02:08:01;;;;;;;1.27;0.70;;;10.60;99.90;;;;;;6230263;23;20012;-73
2022/05/31 02:10:27;;;;;;;4.85;0.60;;;10.60;99.90;;;;;;6232422;23;20042;-74
2022/05/31 02:12:53;;;;;;;2.97;0.90;;;10.70;99.90;;;;;;6230266;23;20004;-74
2022/05/31 02:15:20;;;;;;;0.77;0.70;;;10.80;99.90;;;;;;6229681;23;20008;-73
2022/05/31 02:17:46;;;;;;;0.80;0.50;;;10.80;99.90;;;;;;6232000;23;20035;-73
2022/05/31 02:20:12;;;;;;;1.33;0.80;;;10.70;99.90;;;;;;6229781;23;20008;-74
2022/05/31 02:22:38;;;;;;;1.73;0.70;;;10.70;99.90;;;;;;6229742;23;20008;-75
2022/05/31 02:25:04;;;;;;;1.33;0.50;;;10.70;99.90;;;;;;6230882;23;20010;-74
2022/05/31 02:27:30;;;;;;;1.60;0.85;;;10.60;99.90;;;;;;6231005;23;20004;-74
2022/05/31 02:29:56;;;;;;;3.05;0.80;;;10.50;99.90;;;;;;6227175;23;20063;-74
2022/05/31 02:32:21;;;;;;;2.97;0.70;;;10.40;99.90;;;;;;6228593;23;20036;-74
2022/05/31 02:34:49;;;;;;;0.80;0.73;;;10.40;99.90;;;;;;6232858;23;20016;-74
2022/05/31 02:37:16;;;;;;;1.00;0.52;;;10.50;99.90;;;;;;6232309;23;20591;-74
2022/05/31 02:39:42;;;;;;;0.77;0.70;;;10.30;99.90;;;;;;6230790;23;20004;-74
2022/05/31 02:42:08;;;;;;;2.42;0.73;;;10.20;99.90;;;;;;6203525;23;20004;-74
2022/05/31 02:44:34;;;;;;;2.17;0.80;;;10.20;99.90;;;;;;6232150;23;20027;-74
2022/05/31 02:47:01;;;;;;;3.03;0.80;;;10.10;99.90;;;;;;6231011;23;20100;-74
2022/05/31 02:49:27;;;;;;;3.03;0.70;;;10.10;99.90;;;;;;6229823;23;20031;-74
2022/05/31 02:51:52;;;;;;;1.10;0.70;;;10.10;99.90;;;;;;6232475;23;20014;-74
2022/05/31 02:54:19;;;;;;;3.65;0.80;;;10.10;99.90;;;;;;6232328;23;20036;-75
2022/05/31 02:56:48;;;;;;;1.00;0.93;;;10.00;99.90;;;;;;6232673;23;20004;-74
2022/05/31 02:59:13;;;;;;;0.57;0.47;;;10.00;99.90;;;;;;6232008;23;20010;-74
2022/05/31 03:01:40;;;;;;;0.70;0.70;;;10.00;99.90;;;;;;6233325;23;20014;-74
2022/05/31 03:04:07;;;;;;;0.80;0.70;;;10.00;99.90;;;;;;6231396;23;20087;-77
2022/05/31 03:06:34;;;;;;;1.38;0.50;;;9.90;99.90;;;;;;6233738;23;20665;-78
2022/05/31 03:09:00;;;;;;;0.82;0.82;;;9.90;99.90;;;;;;6232983;23;20008;-77
2022/05/31 03:11:32;;;;;;;0.80;0.68;;;9.90;99.90;;;;;;6206036;23;20765;-77
2022/05/31 03:14:04;;;;;;;2.97;0.70;;;9.80;99.90;;;;;;6233015;23;20070;-76
2022/05/31 03:16:29;;;;;;;;;;;9.80;99.90;;;;;;6233814;23;20037;-77
2022/05/31 03:19:02;;;;;;;1.70;0.73;;;9.70;99.90;;;;;;6231802;23;19904;-76
2022/05/31 03:21:35;;;;;;;1.27;0.80;;;9.70;99.90;;;;;;6236072;23;20004;-76
2022/05/31 03:24:07;;;;;;;0.88;0.60;;;9.70;99.90;;;;;;6232836;23;20019;-76
2022/05/31 03:26:36;;;;;;;0.98;0.65;;;9.60;99.90;;;;;;6234195;23;20002;-77
2022/05/31 03:29:03;;;;;;;0.90;0.70;;;9.60;99.90;;;;;;6231724;23;20003;-75
2022/05/31 03:31:30;;;;;;;0.63;0.63;;;9.60;99.90;;;;;;6233681;23;20464;-76
2022/05/31 03:33:56;;;;;;;1.17;0.85;;;9.60;99.90;;;;;;6233882;23;19996;-75
2022/05/31 03:36:22;;;;;;;0.63;0.63;;;9.60;99.90;;;;;;6233886;23;20469;-78
2022/05/31 03:38:48;;;;;;;9.70;1.20;;;9.70;99.90;;;;;;6233765;23;20078;-75
2022/05/31 03:41:14;;;;;;;1.92;0.80;;;9.70;99.90;;;;;;6235063;23;20050;-80
2022/05/31 03:43:39;;;;;;;1.00;0.65;;;9.90;99.90;;;;;;6234433;23;20012;-76
2022/05/31 03:46:11;;;;;;;1.30;0.90;;;9.90;99.90;;;;;;6235213;23;20107;-75
2022/05/31 03:48:37;;;;;;;45.30;2.67;;;10.10;99.90;;;;;;6233747;23;20024;-75
2022/05/31 03:51:06;;;;;;;0.75;0.73;;;10.10;99.90;;;;;;6233402;23;20021;-76
2022/05/31 03:53:31;;;;;;;1.85;0.82;;;10.40;99.90;;;;;;6230524;23;20004;-77
2022/05/31 03:56:00;;;;;;;0.80;0.77;;;10.60;99.90;;;;;;6205218;23;20079;-78
2022/05/31 03:58:25;;;;;;;39.63;2.78;;;10.70;99.90;;;;;;6234334;23;20449;-77
2022/05/31 04:00:51;;;;;;;1.50;0.70;;;10.70;99.90;;;;;;6232664;23;20019;-76
2022/05/31 04:03:17;;;;;;;0.90;0.70;;;10.80;99.90;;;;;;6223965;23;20015;-72
2022/05/31 04:05:42;;;;;;;2.80;0.70;;;10.90;99.90;;;;;;6232510;23;20014;-74
2022/05/31 04:08:11;;;;;;;0.80;0.63;;;11.00;99.90;;;;;;6234076;23;20018;-74
2022/05/31 04:10:37;;;;;;;68.85;3.95;;;11.00;99.90;;;;;;6232380;23;20075;-75
2022/05/31 04:13:04;;;;;;;8.85;1.17;;;10.90;99.90;;;;;;6233267;23;20115;-74
2022/05/31 04:15:30;;;;;;;6.15;1.10;;;11.00;99.90;;;;;;6231679;23;20092;-74
2022/05/31 04:17:55;;;;;;;3.08;0.85;;;11.20;99.90;;;;;;6231642;23;20588;-75
2022/05/31 04:20:21;;;;;;;0.95;0.70;;;11.20;99.90;;;;;;6233849;23;20016;-75
2022/05/31 04:22:47;;;;;;;10.73;1.20;;;11.30;99.90;;;;;;6235578;23;20330;-74
2022/05/31 04:25:13;;;;;;;4.15;1.10;;;11.40;99.90;;;;;;6232638;23;20046;-75
2022/05/31 04:27:38;;;;;;;5.50;0.88;;;11.60;99.90;;;;;;6235720;23;20015;-75
2022/05/31 04:30:04;;;;;;;9.20;1.38;;;11.60;99.90;;;;;;6233010;23;20103;-75
2022/05/31 04:32:30;;;;;;;1.50;1.00;;;11.70;99.90;;;;;;6234347;23;19996;-75
2022/05/31 04:34:56;;;;;;;1.13;1.00;;;11.90;99.90;;;;;;6233538;23;20004;-69
2022/05/31 04:37:22;;;;;;;3.47;0.93;;;12.00;99.90;;;;;;6235183;23;20015;-76
2022/05/31 04:39:48;;;;;;;1.08;0.85;;;12.20;99.90;;;;;;6234545;23;20252;-75
2022/05/31 04:42:14;;;;;;;3.17;0.80;;;12.30;99.90;;;;;;6234989;23;20015;-77
2022/05/31 04:44:39;;;;;;;1.23;0.90;;;12.30;99.90;;;;;;6235942;23;20015;-75
2022/05/31 04:47:06;;;;;;;4.10;1.13;;;12.40;99.90;;;;;;6241253;22;20024;-76
2022/05/31 04:49:32;;;;;;;3.90;1.23;;;12.50;99.90;;;;;;6244150;23;20386;-74
2022/05/31 04:51:58;;;;;;;1.15;0.80;;;12.60;99.90;;;;;;6243955;23;20004;-76
2022/05/31 04:54:24;;;;;;;7.40;1.27;;;12.70;99.90;;;;;;6246877;23;20475;-76
2022/05/31 04:56:52;;;;;;;1.05;0.93;;;12.80;99.90;;;;;;6241394;23;20023;-74
2022/05/31 04:59:19;;;;;;;4.22;1.20;;;12.90;99.90;;;;;;6241954;23;20004;-75
2022/05/31 05:01:45;;;;;;;13.07;1.85;;;12.90;99.90;;;;;;6239127;23;20082;-76
2022/05/31 05:04:11;;;;;;;3.95;0.75;;;13.00;99.90;;;;;;6244201;23;20429;-75
2022/05/31 05:06:37;;;;;;;0.75;0.75;;;13.00;99.90;;;;;;6244755;23;20086;-75
2022/05/31 05:09:03;;;;;;;2.95;1.20;;;13.10;99.90;;;;;;6243500;23;20010;-76
2022/05/31 05:11:32;;;;;;;2.20;1.20;;;13.30;99.90;;;;;;6242156;23;20083;-75
2022/05/31 05:13:57;;;;;;;2.65;1.00;;;13.50;99.90;;;;;;6233288;23;20011;-74
2022/05/31 05:16:23;;;;;;;1.30;1.02;;;13.70;99.90;;;;;;6244606;23;20025;-75
2022/05/31 05:18:49;;;;;;;65.43;15.75;;;13.80;99.90;;;;;;6245607;23;20923;-77
2022/05/31 05:21:16;;;;;;;10.80;3.70;;;14.00;99.90;;;;;;6243095;23;20075;-79
2022/05/31 05:23:41;;;;;;;45.90;12.35;;;14.30;99.90;;;;;;6243586;23;20058;-77
2022/05/31 05:26:08;;;;;;;6.18;1.88;;;14.70;99.90;;;;;;6236626;23;20012;-77
2022/05/31 05:31:26;;;;;;;1.00;0.90;;;15.30;99.90;;;;;;6237765;23;20031;-75
2022/05/31 05:33:53;;;;;;;16.92;1.30;;;15.40;99.90;;;;;;6235925;23;20324;-74
2022/05/31 05:36:19;;;;;;;4.78;1.40;;;15.50;99.90;;;;;;6237613;23;20159;-75
2022/05/31 05:38:45;;;;;;;1.85;0.80;;;15.60;99.90;;;;;;6235767;23;20051;-75
2022/05/31 05:41:11;;;;;;;0.55;0.50;;;15.60;99.90;;;;;;6236550;23;20465;-75
2022/05/31 05:43:37;;;;;;;1.08;0.80;;;15.60;99.90;;;;;;6236556;23;20592;-75
2022/05/31 05:46:03;;;;;;;7.07;1.08;;;15.70;99.90;;;;;;6235351;23;20004;-75
2022/05/31 05:48:29;;;;;;;5.30;0.88;;;15.80;99.90;;;;;;6236204;23;20449;-75
2022/05/31 05:50:54;;;;;;;1.40;0.90;;;15.80;99.90;;;;;;6235851;23;20023;-74
2022/05/31 05:53:20;;;;;;;1.65;0.95;;;15.90;99.90;;;;;;6235994;23;20698;-75
2022/05/31 05:55:46;;;;;;;3.13;1.08;;;16.00;99.90;;;;;;6237933;23;20434;-75
2022/05/31 05:58:11;;;;;;;1.25;0.80;;;16.10;99.90;;;;;;6236020;23;20039;-75
2022/05/31 06:00:46;;;;;;;1.80;0.75;;;16.10;99.90;;;;;;6234960;23;20014;-74
2022/05/31 06:03:20;;;;;;;1.30;0.82;;;16.10;99.90;;;;;;6236049;23;20032;-75
2022/05/31 06:05:47;;;;;;;1.20;0.85;;;16.20;99.90;;;;;;6236912;23;20003;-75
2022/05/31 06:08:38;;;;;;;1.40;1.00;;;16.30;99.90;;;;;;6236710;23;20001;-75
2022/05/31 06:11:13;;;;;;;1.45;0.93;;;16.40;99.90;;;;;;6235139;23;20062;-75
2022/05/31 06:14:10;;;;;;;2.35;0.90;;;16.40;99.90;;;;;;6237095;23;20000;-74
2022/05/31 06:16:40;;;;;;;3.30;1.00;;;16.50;99.70;;;;;;6234835;23;20012;-74
2022/05/31 06:19:14;;;;;;;0.85;0.73;;;16.60;99.60;;;;;;6235826;23;20027;-74
2022/05/31 06:21:41;;;;;;;1.50;0.90;;;16.70;98.70;;;;;;6236891;23;19996;-74
2022/05/31 06:24:06;;;;;;;0.73;0.68;;;16.80;99.50;;;;;;6235551;23;20428;-74
2022/05/31 06:26:32;;;;;;;2.53;0.90;;;17.00;98.90;;;;;;6233934;23;20015;-74
2022/05/31 06:28:58;;;;;;;2.13;0.65;;;17.10;98.70;;;;;;6236032;23;20011;-74
2022/05/31 06:31:23;;;;;;;1.85;0.75;;;17.20;98.20;;;;;;6235307;23;20012;-75
2022/05/31 06:33:49;;;;;;;1.75;0.90;;;17.40;98.10;;;;;;6235807;23;20011;-75
2022/05/31 06:36:15;;;;;;;1.52;1.05;;;17.50;97.70;;;;;;6234462;23;20022;-75
2022/05/31 06:38:41;;;;;;;2.20;1.00;;;17.50;97.50;;;;;;6236031;23;20004;-75
2022/05/31 06:41:07;;;;;;;2.60;1.20;;;17.50;96.90;;;;;;6236218;23;20015;-74
2022/05/31 06:43:34;;;;;;;3.85;1.02;;;17.50;97.80;;;;;;6235089;23;20008;-74
2022/05/31 06:46:08;;;;;;;1.02;0.80;;;17.50;98.40;;;;;;6235335;23;20000;-75
2022/05/31 06:48:33;;;;;;;1.42;0.90;;;17.60;97.20;;;;;;6236706;23;20046;-75
2022/05/31 06:51:07;;;;;;;3.17;0.65;;;17.70;96.70;;;;;;6235533;23;20461;-75
2022/05/31 06:59:01;;;;;;;2.17;0.70;;;17.80;95.80;;;;;;6234916;23;20107;-75
2022/05/31 07:01:37;;;;;;;1.83;1.05;;;17.80;96.20;;;;;;6232606;23;20071;-74
2022/05/31 07:04:03;;;;;;;1.63;0.90;;;18.00;96.10;;;;;;6231419;23;20035;-74
2022/05/31 07:06:30;;;;;;;2.60;0.90;;;18.10;96.20;;;;;;6234129;23;20523;-75
2022/05/31 07:08:56;;;;;;;2.58;0.70;;;18.20;95.50;;;;;;6235120;23;20108;-75
2022/05/31 07:11:22;;;;;;;10.20;0.93;;;18.30;95.10;;;;;;6234688;23;20508;-75
2022/05/31 07:13:48;;;;;;;2.35;0.95;;;18.40;93.90;;;;;;6234307;23;20004;-75
2022/05/31 07:16:14;;;;;;;0.65;0.63;;;18.30;94.30;;;;;;6234061;23;20003;-75
2022/05/31 07:18:40;;;;;;;0.98;0.57;;;18.30;94.60;;;;;;6233789;23;20019;-74
2022/05/31 07:21:05;;;;;;;2.10;0.82;;;18.30;93.90;;;;;;6233028;23;20008;-74
2022/05/31 07:23:31;;;;;;;1.23;0.88;;;18.50;93.80;;;;;;6234603;23;20389;-74
2022/05/31 07:25:59;;;;;;;0.82;0.43;;;18.60;94.30;;;;;;6235063;23;20008;-75
2022/05/31 07:28:28;;;;;;;0.63;0.63;;;18.70;94.00;;;;;;6208458;23;20008;-73
2022/05/31 07:30:54;;;;;;;0.82;0.82;;;18.70;93.30;;;;;;6209329;23;20389;-74
2022/05/31 07:33:20;;;;;;;2.55;0.85;;;18.80;93.00;;;;;;6237037;23;20019;-75
2022/05/31 07:35:47;;;;;;;0.60;0.60;;;18.70;92.80;;;;;;6235340;23;20012;-74
2022/05/31 07:38:13;;;;;;;2.25;0.90;;;18.80;93.20;;;;;;6236197;23;20090;-76
2022/05/31 07:40:38;;;;;;;1.83;0.60;;;19.00;92.80;;;;;;6228856;23;20469;-73
2022/05/31 07:43:04;;;;;;;1.02;0.70;;;19.10;91.90;;;;;;6228867;23;20421;-73
2022/05/31 07:45:30;;;;;;;0.60;0.60;;;19.00;91.70;;;;;;6230218;23;20011;-74
2022/05/31 07:47:55;;;;;;;1.10;0.70;;;19.00;92.10;;;;;;6236431;23;20048;-74
2022/05/31 07:50:21;;;;;;;2.70;0.90;;;19.20;92.80;;;;;;6238114;23;20510;-74
2022/05/31 07:52:47;;;;;;;1.83;0.98;;;19.30;92.20;;;;;;6235945;23;20028;-75
2022/05/31 07:55:13;;;;;;;0.95;0.55;;;19.40;91.50;;;;;;6235216;23;20031;-74
2022/05/31 08:00:24;;;;;;;1.08;0.80;;;19.50;90.90;;;;;;6233457;23;20134;-75
2022/05/31 08:02:49;;;;;;;1.40;0.75;;;19.60;90.60;;;;;;6234528;23;20453;-75
2022/05/31 08:05:15;;;;;;;3.92;0.82;;;19.50;90.40;;;;;;6208046;23;20008;-76
2022/05/31 08:07:42;;;;;;;1.00;0.52;;;19.60;90.60;;;;;;6209120;23;20015;-75
2022/05/31 08:10:09;;;;;;;2.75;0.90;;;19.70;90.50;;;;;;6236538;23;20094;-74
2022/05/31 08:12:35;;;;;;;4.60;0.80;;;19.70;90.10;;;;;;6234217;23;20001;-73
2022/05/31 08:15:01;;;;;;;3.45;0.70;;;19.80;90.80;;;;;;6229618;23;20069;-76
2022/05/31 08:17:27;;;;;;;2.45;0.73;;;19.90;86.50;;;;;;6231195;23;20678;-73
2022/05/31 08:19:54;;;;;;;3.40;0.70;;;19.80;84.30;;;;;;6226498;23;20519;-75
2022/05/31 08:22:20;;;;;;;1.15;0.68;;;19.90;83.50;;;;;;6232799;23;20338;-76
2022/05/31 08:24:46;;;;;;;2.00;0.60;;;19.90;83.90;;;;;;6235580;23;20106;-75
2022/05/31 08:27:13;;;;;;;1.77;0.77;;;19.90;84.00;;;;;;6234026;23;20444;-75
2022/05/31 08:29:42;;;;;;;1.23;0.63;;;19.90;84.30;;;;;;6233766;23;20115;-75
2022/05/31 08:32:08;;;;;;;8.25;1.05;;;19.90;84.30;;;;;;6236153;23;20012;-75
2022/05/31 08:34:34;;;;;;;2.00;0.73;;;20.00;86.10;;;;;;6233423;23;20091;-75
2022/05/31 08:37:00;;;;;;;2.72;0.80;;;20.10;86.10;;;;;;6232831;23;20480;-74
2022/05/31 08:39:26;;;;;;;4.10;0.82;;;20.30;85.50;;;;;;6208081;23;20016;-75
2022/05/31 08:42:03;;;;;;;0.60;0.50;;;20.30;84.20;;;;;;6236958;23;20004;-75
2022/05/31 08:44:51;;;;;;;1.45;0.98;;;20.20;84.20;;;;;;6234749;23;20015;-77
2022/05/31 08:47:53;;;;;;;1.05;0.80;;;20.10;83.70;;;;;;6232993;23;20483;-75
2022/05/31 08:53:11;;;;;;;3.20;1.13;;;20.00;86.40;;;;;;6234246;23;19910;-76
2022/05/31 08:58:47;;;;;;;2.58;0.80;;;20.10;88.60;;;;;;6230986;23;20090;-75
2022/05/31 09:01:17;;;;;;;5.63;0.80;;;20.40;89.60;;;;;;6234268;23;20001;-74
2022/05/31 09:03:55;;;;;;;1.05;0.85;;;20.60;87.20;;;;;;6235972;23;20054;-73
2022/05/31 09:07:16;;;;;;;0.65;0.60;;;20.70;84.70;;;;;;6238088;23;20035;-75
2022/05/31 09:09:55;;;;;;;1.83;0.70;;;20.70;86.40;;;;;;6173497;23;20154;-76
2022/05/31 09:12:43;;;;;;;1.20;0.70;;;20.80;87.10;;;;;;6235591;23;20174;-76
2022/05/31 09:15:21;;;;;;;1.25;0.70;;;20.90;83.50;;;;;;6205701;23;20026;-75
2022/05/31 09:17:56;;;;;;;0.82;0.47;;;20.80;83.20;;;;;;6235920;22;20012;-75
2022/05/31 09:20:46;;;;;;;0.73;0.52;;;20.80;87.30;;;;;;6235758;23;20015;-75
2022/05/31 09:23:19;;;;;;;3.42;0.98;;;20.90;84.10;;;;;;6234927;23;20182;-75
2022/05/31 09:25:49;;;;;;;0.80;0.50;;;20.80;85.10;;;;;;6236230;23;20000;-76
2022/05/31 09:28:50;;;;;;;3.75;0.85;;;20.90;85.90;;;;;;6235026;23;19997;-75
2022/05/31 09:31:48;;;;;;;2.25;0.90;;;21.00;84.70;;;;;;6232609;23;20008;-75
2022/05/31 09:34:36;;;;;;;1.80;0.70;;;20.90;81.90;;;;;;6231900;23;20476;-76
2022/05/31 09:37:19;;;;;;;0.73;0.70;;;20.80;83.20;;;;;;6231580;23;20319;-77
2022/05/31 09:40:08;;;;;;;2.00;0.80;;;20.70;82.70;;;;;;6232218;23;20079;-75
2022/05/31 09:42:46;;;;;;;2.08;0.75;;;20.50;82.60;;;;;;6232280;23;20075;-77
2022/05/31 09:45:17;;;;;;;2.65;0.77;;;20.50;82.50;;;;;;6232057;23;20008;-75
2022/05/31 09:47:43;;;;;;;3.13;0.57;;;20.50;82.10;;;;;;6232499;23;20040;-76
2022/05/31 09:50:09;;;;;;;2.22;0.77;;;20.40;83.00;;;;;;6233824;23;20043;-76
2022/05/31 09:52:42;;;;;;;1.20;0.70;;;20.40;83.40;;;;;;6230642;23;20007;-77
2022/05/31 09:58:09;;;;;;;2.70;0.75;;;20.70;85.30;;;;;;6227342;23;20254;-77
2022/05/31 10:01:04;;;;;;;0.70;0.70;;;20.90;84.80;;;;;;6228750;23;20011;-76
2022/05/31 10:03:39;;;;;;;1.75;0.90;;;21.10;80.10;;;;;;6232759;23;20008;-77
2022/05/31 10:06:24;;;;;;;1.88;0.90;;;21.10;80.70;;;;;;6233761;23;20000;-75
2022/05/31 10:08:52;;;;;;;0.98;0.80;;;21.10;81.60;;;;;;6230736;23;20004;-80
2022/05/31 10:11:37;;;;;;;2.15;0.73;;;21.20;79.80;;;;;;6231424;23;20818;-77
2022/05/31 10:14:04;;;;;;;1.63;1.00;;;21.20;79.40;;;;;;6233354;23;20001;-74
2022/05/31 10:16:32;;;;;;;2.53;0.90;;;21.20;80.10;;;;;;6232790;23;20007;-79
2022/05/31 10:19:04;;;;;;;2.55;0.90;;;21.10;78.00;;;;;;6237288;23;20622;-76
2022/05/31 10:21:34;;;;;;;0.70;0.70;;;20.90;79.10;;;;;;6233036;23;20107;-78
2022/05/31 10:24:06;;;;;;;3.05;0.90;;;20.90;79.80;;;;;;6204523;23;20123;-75
2022/05/31 10:26:37;;;;;;;4.55;0.90;;;20.80;79.10;;;;;;6203827;23;20016;-75
2022/05/31 10:29:30;;;;;;;1.67;0.80;;;20.70;80.20;;;;;;6232792;23;20023;-78
2022/05/31 10:31:56;;;;;;;2.75;0.70;;;20.70;81.90;;;;;;6215093;23;20035;-77
2022/05/31 10:34:40;;;;;;;3.55;0.80;;;20.80;82.60;;;;;;6230790;23;20016;-77
2022/05/31 10:37:24;;;;;;;2.75;0.90;;;20.80;80.80;;;;;;6230390;23;20005;-77
2022/05/31 10:40:01;;;;;;;1.52;0.88;;;20.80;80.50;;;;;;6228133;23;20354;-77
2022/05/31 10:42:28;;;;;;;2.42;0.73;;;20.80;80.40;;;;;;6231093;23;20015;-76
2022/05/31 10:44:58;;;;;;;4.32;0.70;;;20.90;80.30;;;;;;6201560;23;20005;-77
2022/05/31 10:47:26;;;;;;;2.05;0.70;;;20.90;81.50;;;;;;6231961;23;20020;-77
2022/05/31 10:49:51;;;;;;;2.40;0.88;;;20.90;79.50;;;;;;6230074;23;20106;-75
2022/05/31 10:52:36;;;;;;;2.15;0.88;;;20.80;79.50;;;;;;6233374;23;20490;-76
2022/05/31 10:55:13;;;;;;;1.85;0.70;;;20.80;80.00;;;;;;6233476;23;20725;-76
2022/05/31 10:57:58;;;;;;;1.25;0.73;;;20.80;81.60;;;;;;6227759;23;20361;-76
2022/05/31 11:00:32;;;;;;;1.70;1.00;;;20.90;80.20;;;;;;6225575;23;20278;-76
2022/05/31 11:03:07;;;;;;;2.53;0.90;;;20.90;81.00;;;;;;6234400;23;20328;-76
2022/05/31 11:05:50;;;;;;;1.58;0.70;;;20.90;78.40;;;;;;6235300;23;20005;-78
2022/05/31 11:11:42;;;;;;;2.75;1.00;;;21.10;80.80;;;;;;6231650;23;20089;-78
2022/05/31 11:14:22;;;;;;;2.53;1.13;;;21.10;76.40;;;;;;6205310;23;20004;-77
2022/05/31 11:17:11;;;;;;;3.83;0.95;;;21.00;76.60;;;;;;6202548;23;20008;-76
2022/05/31 11:19:52;;;;;;;3.13;0.90;;;20.90;79.10;;;;;;6226486;23;20209;-78
2022/05/31 11:22:36;;;;;;;5.10;1.02;;;20.90;79.50;;;;;;6206712;23;20071;-62
2022/05/31 11:25:23;;;;;;;2.03;1.02;;;21.00;80.90;;;;;;6233073;23;20096;-61
2022/05/31 11:27:49;;;;;;;1.85;0.95;;;21.10;78.20;;;;;;6234083;23;20012;-62
2022/05/31 11:30:34;;;;;;;2.15;0.90;;;21.10;78.80;;;;;;6232131;23;20472;-61
2022/05/31 11:33:27;;;;;;;4.68;0.98;;;21.10;78.90;;;;;;6235009;23;20079;-61
2022/05/31 11:36:05;;;;;;;1.80;1.35;;;21.10;79.80;;;;;;6232456;23;20087;-61
2022/05/31 11:39:06;;;;;;;3.15;1.27;;;21.00;80.10;;;;;;6232097;23;20201;-62
2022/05/31 11:41:42;;;;;;;4.68;0.85;;;21.00;80.70;;;;;;6233334;23;20012;-62
2022/05/31 11:44:20;;;;;;;2.55;0.93;;;21.10;82.00;;;;;;6234687;23;20000;-62
2022/05/31 11:47:17;;;;;;;2.38;1.05;;;21.20;80.40;;;;;;6234780;23;20008;-61
2022/05/31 11:50:11;;;;;;;4.00;0.95;;;21.20;78.40;;;;;;6163189;23;20048;-61
2022/05/31 11:52:50;;;;;;;1.88;0.90;;;21.20;80.50;;;;;;6236195;23;20008;-62
2022/05/31 11:55:40;;;;;;;3.28;0.98;;;21.40;80.10;;;;;;6233353;23;20031;-61
2022/05/31 11:58:44;;;;;;;3.28;0.90;;;21.60;82.20;;;;;;6234094;23;20004;-62
2022/05/31 12:01:32;;;;;;;2.65;1.42;;;21.80;79.30;;;;;;6234457;23;20023;-62
2022/05/31 12:04:28;;;;;;;1.40;1.00;;;21.90;77.00;;;;;;6237092;23;20117;-61
2022/05/31 12:07:09;;;;;;;1.58;0.80;;;21.90;77.40;;;;;;6234900;23;20000;-61
2022/05/31 12:09:47;;;;;;;2.20;1.00;;;21.70;75.90;;;;;;6234619;23;20031;-61
2022/05/31 12:12:18;;;;;;;3.90;0.90;;;21.60;75.90;;;;;;6228451;23;20008;-62
2022/05/31 12:14:59;;;;;;;1.17;0.80;;;21.40;77.00;;;;;;6232543;23;20083;-62
2022/05/31 12:17:54;;;;;;;1.50;1.00;;;21.30;77.70;;;;;;6211265;23;20629;-66
2022/05/31 12:20:34;;;;;;;1.58;1.00;;;21.20;76.70;;;;;;6231631;23;20015;-66
2022/05/31 12:23:08;;;;;;;3.33;1.10;;;21.20;77.90;;;;;;6232710;23;20350;-66
2022/05/31 12:25:39;;;;;;;2.80;1.20;;;21.40;79.60;;;;;;6234805;23;20342;-66
2022/05/31 12:28:26;;;;;;;1.88;0.80;;;21.50;77.00;;;;;;6233719;23;20010;-66
2022/05/31 12:31:22;;;;;;;1.17;0.90;;;21.40;77.20;;;;;;6231989;23;20078;-66
2022/05/31 12:33:48;;;;;;;1.83;0.95;;;21.30;75.90;;;;;;6233981;23;20010;-66
2022/05/31 12:36:23;;;;;;;2.45;1.13;;;21.30;76.60;;;;;;6233064;23;20008;-67
2022/05/31 12:38:55;;;;;;;0.80;0.80;;;21.40;77.70;;;;;;6233810;23;20405;-67
2022/05/31 12:41:34;;;;;;;1.73;0.98;;;21.50;76.90;;;;;;6231320;23;20011;-66
2022/05/31 12:44:00;;;;;;;2.03;1.20;;;21.60;76.80;;;;;;6234504;23;20007;-66
2022/05/31 12:46:33;;;;;;;5.18;1.55;;;21.60;76.80;;;;;;6228097;23;20004;-66
2022/05/31 12:49:03;;;;;;;3.58;1.40;;;21.80;74.70;;;;;;6235026;23;20016;-66
2022/05/31 12:51:29;;;;;;;2.13;0.88;;;21.90;75.60;;;;;;6230656;23;20011;-66
2022/05/31 12:54:05;;;;;;;1.80;0.95;;;22.10;73.10;;;;;;6234927;23;20011;-66
2022/05/31 12:56:31;;;;;;;2.22;1.05;;;22.30;73.90;;;;;;6235004;23;20008;-66
2022/05/31 12:58:59;;;;;;;4.20;1.25;;;22.30;74.60;;;;;;6232816;23;20004;-66
2022/05/31 13:01:24;;;;;;;2.55;1.10;;;22.50;72.50;;;;;;6231240;23;20004;-66
2022/05/31 13:03:50;;;;;;;3.28;1.20;;;22.50;72.00;;;;;;6232565;23;20015;-67
2022/05/31 13:06:34;;;;;;;2.30;1.10;;;22.50;69.80;;;;;;6234262;23;20031;-66
2022/05/31 13:09:25;;;;;;;2.92;1.60;;;22.40;73.40;;;;;;6236482;23;20512;-67
2022/05/31 13:20:44;;;;;;;1.55;1.23;;;22.40;71.10;;;;;;6231407;23;20496;-67
2022/05/31 13:23:35;;;;;;;2.90;1.40;;;22.40;73.10;;;;;;6231615;23;20010;-66
2022/05/31 13:26:14;;;;;;;3.38;1.30;;;22.30;71.00;;;;;;6234631;23;20000;-66
2022/05/31 13:28:56;;;;;;;4.60;1.23;;;22.10;71.00;;;;;;6233810;23;20425;-66
2022/05/31 13:31:24;;;;;;;3.38;1.30;;;22.00;72.30;;;;;;6230972;22;20020;-66
2022/05/31 13:33:59;;;;;;;1.70;1.48;;;21.90;71.60;;;;;;6231302;23;20000;-67
2022/05/31 13:36:28;;;;;;;1.65;1.30;;;22.00;73.30;;;;;;6229439;23;20008;-65
2022/05/31 13:39:03;;;;;;;1.65;1.02;;;22.00;73.30;;;;;;6230787;23;20027;-67
2022/05/31 13:41:30;;;;;;;2.22;1.50;;;22.00;71.60;;;;;;6229040;22;20024;-66